createdAt,value
2022-08-17T00:02:16.356Z,97855.41
2022-08-17T00:05:28.653Z,97847.47
2022-08-17T00:08:36.803Z,97849.94
2022-08-17T00:11:39.383Z,97854.06
2022-08-17T00:14:40.745Z,97850.41
2022-08-17T00:17:42.718Z,97851.50
2022-08-17T00:20:44.052Z,97845.03
2022-08-17T00:23:49.484Z,97858.41
2022-08-17T00:26:52.314Z,97850.69
2022-08-17T00:29:53.665Z,97852.41
2022-08-17T00:33:14.905Z,97858.34
2022-08-17T00:36:16.367Z,97843.75
2022-08-17T00:39:17.735Z,97844.13
2022-08-17T00:42:19.098Z,97845.72
2022-08-17T00:45:20.550Z,97849.59
2022-08-17T00:48:29.239Z,97847.22
2022-08-17T00:51:37.437Z,97847.50
2022-08-17T00:54:41.896Z,97845.56
2022-08-17T00:57:44.766Z,97855.56
2022-08-17T01:00:46.181Z,97851.38
2022-08-17T01:03:47.696Z,97857.47
2022-08-17T01:06:49.389Z,97855.88
2022-08-17T01:09:51.302Z,97844.28
2022-08-17T01:12:52.825Z,97852.97
2022-08-17T01:16:01.457Z,97840.38
2022-08-17T01:19:04.401Z,97834.09
2022-08-17T01:22:05.697Z,97833.66
2022-08-17T01:25:07.990Z,97840.72
2022-08-17T01:28:09.689Z,97839.88
2022-08-17T01:31:11.063Z,97852.06
2022-08-17T01:34:12.861Z,97853.78
2022-08-17T01:37:14.307Z,97861.50
2022-08-17T01:40:21.669Z,97864.00
2022-08-17T01:43:24.035Z,97868.03
2022-08-17T01:46:27.184Z,97878.34
2022-08-17T01:49:28.569Z,97891.75
2022-08-17T01:52:29.977Z,97889.03
2022-08-17T01:55:38.842Z,97903.00
2022-08-17T01:58:40.336Z,97903.78
2022-08-17T02:01:41.710Z,97914.50
2022-08-17T02:04:43.097Z,97915.44
2022-08-17T02:07:59.393Z,97925.00
2022-08-17T02:11:06.064Z,97917.94
2022-08-17T02:14:13.017Z,97917.13
2022-08-17T02:17:14.353Z,97920.06
2022-08-17T02:20:16.769Z,97927.81
2022-08-17T02:23:38.544Z,97941.09
2022-08-17T02:26:39.893Z,97953.44
2022-08-17T02:29:41.304Z,97954.50
2022-08-17T02:32:42.724Z,97950.88
2022-08-17T02:35:44.128Z,97952.31
2022-08-17T02:38:45.539Z,97966.38
2022-08-17T02:41:46.987Z,97965.78
2022-08-17T02:44:48.441Z,97972.91
2022-08-17T02:47:50.287Z,97976.16
2022-08-17T02:50:51.650Z,97978.78
2022-08-17T02:53:53.039Z,97979.78
2022-08-17T02:57:14.378Z,97980.50
2022-08-17T03:00:21.155Z,97987.38
2022-08-17T03:03:22.539Z,97988.31
2022-08-17T03:06:25.215Z,97991.56
2022-08-17T03:09:26.561Z,97989.00
2022-08-17T03:12:35.133Z,98001.91
2022-08-17T03:15:36.558Z,97993.50
2022-08-17T03:18:42.001Z,97993.34
2022-08-17T03:21:43.360Z,97993.44
2022-08-17T03:24:44.704Z,97993.31
2022-08-17T03:27:48.231Z,97996.50
2022-08-17T03:30:52.789Z,98007.19
2022-08-17T03:33:54.152Z,98023.03
2022-08-17T03:36:55.528Z,98014.44
2022-08-17T03:39:56.985Z,98008.22
2022-08-17T03:43:03.358Z,98013.59
2022-08-17T03:46:28.660Z,98003.72
2022-08-17T03:49:54.842Z,98008.69
2022-08-17T03:53:15.006Z,98008.88
2022-08-17T03:56:36.648Z,98001.81
2022-08-17T03:59:38.042Z,98018.47
2022-08-17T04:02:40.461Z,98028.09
2022-08-17T04:05:41.844Z,98023.56
2022-08-17T04:08:43.193Z,98022.56
2022-08-17T04:11:44.901Z,98017.16
2022-08-17T04:14:52.909Z,98023.25
2022-08-17T04:17:55.906Z,98023.28
2022-08-17T04:20:57.276Z,98004.94
2022-08-17T04:24:00.330Z,98005.66
2022-08-17T04:27:01.869Z,98019.66
2022-08-17T04:30:03.747Z,98011.66
2022-08-17T04:33:08.542Z,98014.38
2022-08-17T04:36:09.980Z,98001.50
2022-08-17T04:39:11.345Z,98010.28
2022-08-17T04:42:17.254Z,98015.44
2022-08-17T04:45:18.663Z,98024.88
2022-08-17T04:48:20.766Z,98022.97
2022-08-17T04:51:25.129Z,98015.03
2022-08-17T04:54:26.504Z,98013.06
2022-08-17T04:57:27.837Z,98010.28
2022-08-17T05:00:29.261Z,97990.88
2022-08-17T05:03:30.957Z,97975.94
2022-08-17T05:06:32.387Z,97971.63
2022-08-17T05:09:33.762Z,98000.66
2022-08-17T05:12:35.102Z,98000.66
2022-08-17T05:15:37.652Z,98019.81
2022-08-17T05:18:46.437Z,98000.69
2022-08-17T05:21:47.779Z,97992.78
2022-08-17T05:24:53.383Z,98040.88
2022-08-17T05:27:55.457Z,98048.41
2022-08-17T05:30:57.936Z,98053.63
2022-08-17T05:33:59.402Z,98058.78
2022-08-17T05:37:01.254Z,98064.13
2022-08-17T05:40:02.732Z,98072.25
2022-08-17T05:43:12.034Z,98096.41
2022-08-17T05:46:19.213Z,98088.66
2022-08-17T05:49:23.390Z,98077.25
2022-08-17T05:52:30.803Z,98079.97
2022-08-17T05:55:35.589Z,98076.63
2022-08-17T05:58:55.341Z,98089.84
2022-08-17T06:02:03.145Z,98076.63
2022-08-17T06:05:16.780Z,98069.41
2022-08-17T06:08:21.935Z,98076.59
2022-08-17T06:11:42.289Z,98070.50
2022-08-17T06:14:55.892Z,98059.19
2022-08-17T06:18:02.458Z,98037.09
2022-08-17T06:21:04.636Z,98030.22
2022-08-17T06:24:07.354Z,98027.91
2022-08-17T06:27:12.188Z,98030.13
2022-08-17T06:30:13.506Z,98040.34
2022-08-17T06:33:22.260Z,98035.75
2022-08-17T06:36:33.620Z,98042.06
2022-08-17T06:39:44.543Z,98045.72
2022-08-17T06:43:02.779Z,98046.03
2022-08-17T06:46:11.312Z,98044.69
2022-08-17T06:49:21.744Z,98034.56
2022-08-17T06:52:55.755Z,98035.91
2022-08-17T06:55:57.374Z,98031.78
2022-08-17T06:58:58.821Z,98023.47
2022-08-17T07:02:05.157Z,98032.19
2022-08-17T07:05:06.657Z,98032.72
2022-08-17T07:08:35.213Z,98034.22
2022-08-17T07:11:40.746Z,98027.09
2022-08-17T07:14:51.715Z,98033.06
2022-08-17T07:17:53.095Z,98025.75
2022-08-17T07:20:55.896Z,98020.13
2022-08-17T07:24:06.852Z,98026.06
2022-08-17T07:27:16.027Z,98013.47
2022-08-17T07:30:17.492Z,98007.69
2022-08-17T07:33:23.685Z,98002.63
2022-08-17T07:36:29.612Z,98010.06
2022-08-17T07:39:31.637Z,98018.00
2022-08-17T07:42:34.378Z,98023.28
2022-08-17T07:45:54.380Z,98037.16
2022-08-17T07:48:57.077Z,98038.13
2022-08-17T07:52:00.069Z,98046.06
2022-08-17T07:55:32.682Z,98053.28
2022-08-17T07:58:34.136Z,98065.75
2022-08-17T08:01:39.739Z,98071.38
2022-08-17T08:05:01.052Z,98054.56
2022-08-17T08:08:03.484Z,98037.72
2022-08-17T08:11:08.832Z,98039.50
2022-08-17T08:14:34.165Z,98022.88
2022-08-17T08:17:36.550Z,98024.16
2022-08-17T08:20:53.517Z,98016.56
2022-08-17T08:23:57.741Z,98000.38
2022-08-17T08:27:02.044Z,97987.16
2022-08-17T08:30:06.416Z,97980.16
2022-08-17T08:33:08.454Z,97979.28
2022-08-17T08:37:15.768Z,97978.28
2022-08-17T08:39:57.383Z,97987.03
2022-08-17T08:43:04.125Z,97989.72
2022-08-17T08:46:09.732Z,98002.19
2022-08-17T08:50:01.373Z,98008.28
2022-08-17T08:53:07.721Z,98021.22
2022-08-17T08:56:11.216Z,98011.88
2022-08-17T08:59:12.527Z,98018.34
2022-08-17T09:02:34.694Z,98029.84
2022-08-17T09:05:56.217Z,98032.75
2022-08-17T09:09:00.901Z,98034.13
2022-08-17T09:12:04.070Z,98056.00
2022-08-17T09:15:12.762Z,98068.16
2022-08-17T09:19:00.513Z,98090.94
2022-08-17T09:21:48.623Z,98093.47
2022-08-17T09:24:57.001Z,98107.63
2022-08-17T09:28:03.830Z,98104.91
2022-08-17T09:31:09.465Z,98112.78
2022-08-17T09:34:12.543Z,98126.06
2022-08-17T09:37:25.344Z,98123.63
2022-08-17T09:40:26.765Z,98135.19
2022-08-17T09:43:37.041Z,98142.84
2022-08-17T09:46:40.870Z,98150.00
2022-08-17T09:49:49.625Z,98172.88
2022-08-17T09:52:51.809Z,98203.88
2022-08-17T09:55:59.378Z,98218.22
2022-08-17T09:59:03.844Z,98220.13
2022-08-17T10:02:05.104Z,98228.38
2022-08-17T10:05:06.681Z,98236.94
2022-08-17T10:08:09.182Z,98231.84
2022-08-17T10:11:50.469Z,98249.75
2022-08-17T10:14:55.262Z,98253.34
2022-08-17T10:17:59.468Z,98249.09
2022-08-17T10:21:42.890Z,98224.63
2022-08-17T10:25:22.480Z,98228.13
2022-08-17T10:28:29.699Z,98213.38
2022-08-17T10:31:35.886Z,98196.38
2022-08-17T10:34:42.207Z,98201.19
2022-08-17T10:37:59.791Z,98182.81
2022-08-17T10:41:16.388Z,98177.56
2022-08-17T10:44:38.076Z,98194.31
2022-08-17T10:48:04.785Z,98194.06
2022-08-17T10:51:08.763Z,98188.31
2022-08-17T10:54:25.590Z,98174.53
2022-08-17T10:57:26.901Z,98168.00
2022-08-17T11:00:29.262Z,98170.44
2022-08-17T11:03:32.899Z,98173.56
2022-08-17T11:06:53.755Z,98179.44
2022-08-17T11:10:00.619Z,98146.00
2022-08-17T11:13:23.134Z,98141.28
2022-08-17T11:16:37.746Z,98165.25
2022-08-17T11:19:42.144Z,98147.88
2022-08-17T11:26:04.039Z,98118.38
2022-08-17T11:29:06.263Z,98122.63
2022-08-17T11:32:13.302Z,98108.06
2022-08-17T11:35:20.747Z,98116.97
2022-08-17T11:38:26.339Z,98115.44
2022-08-17T11:41:29.822Z,98108.88
2022-08-17T11:44:37.712Z,98100.88
2022-08-17T11:51:46.469Z,98111.72
2022-08-17T11:54:47.956Z,98108.34
2022-08-17T11:57:59.825Z,98109.13
2022-08-17T12:01:01.736Z,98112.03
2022-08-17T12:04:24.166Z,98099.31
2022-08-17T12:07:25.702Z,98087.69
2022-08-17T12:10:34.282Z,98089.38
2022-08-17T12:13:39.965Z,98083.38
2022-08-17T12:16:43.770Z,98066.69
2022-08-17T12:19:45.129Z,98047.69
2022-08-17T12:23:05.298Z,98014.44
2022-08-17T12:26:27.008Z,98037.69
2022-08-17T12:29:35.646Z,98031.72
2022-08-17T12:32:40.620Z,98044.03
2022-08-17T12:35:43.150Z,98035.50
2022-08-17T12:38:53.635Z,98016.56
2022-08-17T12:42:02.339Z,98018.41
2022-08-17T12:45:04.974Z,98028.09
2022-08-17T12:48:07.774Z,97993.75
2022-08-17T12:51:09.768Z,98025.72
2022-08-17T12:54:20.661Z,98003.19
2022-08-17T12:57:23.522Z,98000.66
2022-08-17T13:00:32.108Z,97990.41
2022-08-17T13:03:52.380Z,97991.00
2022-08-17T13:06:59.582Z,97984.22
2022-08-17T13:10:01.628Z,97962.72
2022-08-17T13:13:05.962Z,97955.44
2022-08-17T13:16:14.368Z,97987.59
2022-08-17T13:19:15.966Z,97973.31
2022-08-17T13:22:18.373Z,97955.50
2022-08-17T13:25:19.741Z,97939.59
2022-08-17T13:28:35.500Z,97954.88
2022-08-17T13:31:51.926Z,97947.13
2022-08-17T13:35:15.557Z,97963.19
2022-08-17T13:38:43.897Z,97954.00
2022-08-17T13:41:45.381Z,97934.38
2022-08-17T13:44:46.883Z,97961.56
2022-08-17T13:47:48.254Z,97958.41
2022-08-17T13:51:09.822Z,97947.56
2022-08-17T13:54:20.365Z,97968.31
2022-08-17T13:57:22.658Z,97969.16
2022-08-17T14:00:30.509Z,97947.72
2022-08-17T14:03:31.884Z,97933.97
2022-08-17T14:06:53.197Z,97934.22
2022-08-17T14:09:59.569Z,97933.22
2022-08-17T14:13:00.926Z,97921.03
2022-08-17T14:16:02.282Z,97924.94
2022-08-17T14:19:03.629Z,97942.72
2022-08-17T14:22:05.469Z,97948.09
2022-08-17T14:25:08.526Z,97955.41
2022-08-17T14:28:13.228Z,97935.91
2022-08-17T14:31:14.556Z,97952.84
2022-08-17T14:34:15.960Z,97952.28
2022-08-17T14:37:17.767Z,97956.03
2022-08-17T14:40:20.837Z,97990.28
2022-08-17T14:43:22.387Z,97977.38
2022-08-17T14:46:23.742Z,97951.19
2022-08-17T14:49:25.943Z,97954.03
2022-08-17T14:52:27.396Z,97959.84
2022-08-17T14:55:29.703Z,97948.66
2022-08-17T14:58:31.140Z,97951.09
2022-08-17T15:01:32.510Z,97954.50
2022-08-17T15:04:33.911Z,97975.59
2022-08-17T15:07:35.289Z,97973.00
2022-08-17T15:10:36.621Z,97980.72
2022-08-17T15:13:38.020Z,97971.22
2022-08-17T15:16:54.497Z,97969.38
2022-08-17T15:19:55.855Z,97954.38
2022-08-17T15:22:58.682Z,97959.66
2022-08-17T15:26:00.043Z,97974.97
2022-08-17T15:29:01.469Z,97987.00
2022-08-17T15:32:02.913Z,97982.09
2022-08-17T15:35:05.070Z,97973.19
2022-08-17T15:38:11.567Z,97969.03
2022-08-17T15:41:15.285Z,97977.16
2022-08-17T15:44:16.641Z,97961.53
2022-08-17T15:47:18.012Z,97967.94
2022-08-17T15:50:19.354Z,97975.47
2022-08-17T15:53:20.716Z,97974.09
2022-08-17T15:56:22.183Z,97980.09
2022-08-17T15:59:23.545Z,97986.13
2022-08-17T16:03:15.878Z,97979.31
2022-08-17T16:05:47.682Z,97987.81
2022-08-17T16:08:49.105Z,97990.28
2022-08-17T16:11:53.667Z,97988.47
2022-08-17T16:14:56.598Z,97989.66
2022-08-17T16:17:57.945Z,97987.22
2022-08-17T16:21:19.652Z,97988.94
2022-08-17T16:24:20.999Z,97989.69
2022-08-17T16:27:23.053Z,97990.41
2022-08-17T16:30:24.893Z,97993.19
2022-08-17T16:33:26.232Z,97985.91
2022-08-17T16:36:28.099Z,97983.97
2022-08-17T16:39:30.667Z,97972.22
2022-08-17T16:42:32.507Z,97982.34
2022-08-17T16:45:36.562Z,97966.66
2022-08-17T16:48:38.333Z,97972.25
2022-08-17T16:51:39.795Z,97970.31
2022-08-17T16:54:43.615Z,97974.06
2022-08-17T16:57:47.589Z,97978.56
2022-08-17T17:00:51.916Z,97971.34
2022-08-17T17:03:58.033Z,97988.34
2022-08-17T17:07:03.806Z,97991.31
2022-08-17T17:10:05.867Z,97990.84
2022-08-17T17:13:08.377Z,97982.94
2022-08-17T17:16:16.763Z,97981.22
2022-08-17T17:19:18.050Z,97985.78
2022-08-17T17:22:38.951Z,97982.84
2022-08-17T17:25:45.347Z,97978.78
2022-08-17T17:28:59.412Z,97952.53
2022-08-17T17:32:09.948Z,97928.97
2022-08-17T17:35:15.484Z,97919.38
2022-08-17T17:38:19.723Z,97929.66
2022-08-17T17:41:44.079Z,97924.72
2022-08-17T17:44:46.529Z,97934.22
2022-08-17T17:47:50.925Z,97934.50
2022-08-17T17:51:54.745Z,97928.22
2022-08-17T17:54:40.296Z,97922.59
2022-08-17T17:57:48.572Z,97924.41
2022-08-17T18:00:59.016Z,97910.13
2022-08-17T18:04:11.203Z,97906.91
2022-08-17T18:07:24.845Z,97911.19
2022-08-17T18:10:31.942Z,97915.91
2022-08-17T18:13:36.330Z,97923.22
2022-08-17T18:16:42.691Z,97936.72
2022-08-17T18:19:45.193Z,97936.78
2022-08-17T18:22:46.594Z,97941.03
2022-08-17T18:25:48.829Z,97944.81
2022-08-17T18:28:51.566Z,97954.13
2022-08-17T18:32:13.230Z,97973.31
2022-08-17T18:35:14.506Z,97972.75
2022-08-17T18:38:20.403Z,97978.50
2022-08-17T18:41:26.205Z,97988.88
2022-08-17T18:44:29.091Z,98005.97
2022-08-17T18:47:30.497Z,98009.94
2022-08-17T18:50:36.546Z,98027.25
2022-08-17T18:53:41.208Z,98028.16
2022-08-17T18:56:43.655Z,98031.00
2022-08-17T18:59:45.082Z,98040.59
2022-08-17T19:02:50.883Z,98048.56
2022-08-17T19:05:53.205Z,98052.31
2022-08-17T19:08:54.621Z,98048.38
2022-08-17T19:11:55.955Z,98056.56
2022-08-17T19:14:57.486Z,98074.56
2022-08-17T19:18:15.508Z,98072.00
2022-08-17T19:21:21.799Z,98078.75
2022-08-17T19:24:23.782Z,98075.09
2022-08-17T19:27:34.747Z,98076.09
2022-08-17T19:30:43.095Z,98074.97
2022-08-17T19:33:48.018Z,98066.53
2022-08-17T19:36:57.192Z,98060.63
2022-08-17T19:40:01.624Z,98060.03
2022-08-17T19:43:06.170Z,98051.06
2022-08-17T19:46:09.227Z,98054.16
2022-08-17T19:49:33.034Z,98051.69
2022-08-17T19:52:44.035Z,98053.78
2022-08-17T19:55:47.540Z,98059.47
2022-08-17T19:59:09.286Z,98075.47
2022-08-17T20:02:30.819Z,98076.66
2022-08-17T20:06:10.755Z,98087.31
2022-08-17T20:09:15.045Z,98089.91
2022-08-17T20:12:18.354Z,98096.75
2022-08-17T20:15:22.815Z,98105.41
2022-08-17T20:18:26.063Z,98113.16
2022-08-17T20:21:38.905Z,98129.06
2022-08-17T20:24:40.259Z,98122.25
2022-08-17T20:28:07.911Z,98129.66
2022-08-17T20:31:30.917Z,98123.78
2022-08-17T20:34:37.305Z,98127.66
2022-08-17T20:37:43.026Z,98127.84
2022-08-17T20:40:57.365Z,98112.16
2022-08-17T20:43:59.040Z,98112.75
2022-08-17T20:47:12.367Z,98107.47
2022-08-17T20:50:14.599Z,98104.19
2022-08-17T20:53:36.548Z,98104.25
2022-08-17T20:56:43.937Z,98109.25
2022-08-17T20:59:45.241Z,98106.44
2022-08-17T21:02:47.593Z,98098.44
2022-08-17T21:05:57.426Z,98090.00
2022-08-17T21:09:13.445Z,98095.94
2022-08-17T21:12:14.799Z,98098.44
2022-08-17T21:15:45.841Z,98112.53
2022-08-17T21:18:56.052Z,98106.38
2022-08-17T21:22:03.521Z,98109.31
2022-08-17T21:25:21.675Z,98118.28
2022-08-17T21:28:23.091Z,98132.03
2022-08-17T21:31:36.520Z,98143.63
2022-08-17T21:34:44.216Z,98144.06
2022-08-17T21:37:46.200Z,98140.06
2022-08-17T21:40:50.010Z,98141.75
2022-08-17T21:43:51.451Z,98167.09
2022-08-17T21:46:52.899Z,98187.44
2022-08-17T21:49:54.945Z,98212.31
2022-08-17T21:52:56.331Z,98227.44
2022-08-17T21:55:57.709Z,98253.84
2022-08-17T21:59:03.392Z,98280.25
2022-08-17T22:02:06.110Z,98298.25
2022-08-17T22:05:11.452Z,98314.31
2022-08-17T22:08:20.476Z,98325.72
2022-08-17T22:11:22.628Z,98341.97
2022-08-17T22:14:23.988Z,98345.00
2022-08-17T22:17:29.086Z,98349.56
2022-08-17T22:20:30.428Z,98340.25
2022-08-17T22:23:52.067Z,98341.41
2022-08-17T22:27:04.565Z,98331.56
2022-08-17T22:30:15.145Z,98336.97
2022-08-17T22:33:35.356Z,98331.78
2022-08-17T22:36:37.245Z,98324.03
2022-08-17T22:39:40.325Z,98320.03
2022-08-17T22:42:43.007Z,98322.19
2022-08-17T22:45:45.703Z,98314.03
2022-08-17T22:48:51.012Z,98309.78
2022-08-17T22:51:59.151Z,98295.06
2022-08-17T22:55:24.244Z,98281.63
2022-08-17T22:58:44.145Z,98274.63
2022-08-17T23:02:14.763Z,98263.56
2022-08-17T23:05:16.805Z,98265.44
2022-08-17T23:08:21.298Z,98260.31
2022-08-17T23:11:36.955Z,98251.00
2022-08-17T23:14:51.258Z,98244.06
2022-08-17T23:17:52.806Z,98236.41
2022-08-17T23:20:54.303Z,98237.59
2022-08-17T23:23:55.881Z,98246.28
2022-08-17T23:26:57.360Z,98249.28
2022-08-17T23:29:58.806Z,98253.53
2022-08-17T23:33:01.156Z,98243.06
2022-08-17T23:36:02.496Z,98240.34
2022-08-17T23:39:04.414Z,98232.75
2022-08-17T23:42:08.015Z,98232.59
2022-08-17T23:45:09.577Z,98221.22
2022-08-17T23:48:10.963Z,98228.34
2022-08-17T23:51:13.871Z,98218.41
2022-08-17T23:54:22.812Z,98211.13
2022-08-17T23:57:35.855Z,98215.94
